Mayport, Pennsylvania
Current Conditions -  °F | °C
As of 12:01 PM on Friday 28 Nov 2014 (Local Time) from KDUJ Reporting Station
Light Snow Light Snow  
Wind Chill: 11°   Ceiling: 2700
Heat Index: 23°   Visibility: 3mi
Dew Point: 17°   Wind: 13mph
Humidity: 78%   Direction: 300°WNW
Pressure: 30.2"   Gusts: 17mph
Location:  41.03°N, 79.25°W
Report Text: KDUJ 281701Z AUTO 30011G15KT 3SM -SN SCT022 OVC027 M05/M08 A3020 RMK AO2 P0000 T10501083
Loading
Personal Weather Stations






























Interactive Weather Map New forecast layout! Learn more

10-Day Weather Forecast

Advertisements
Track Severe Weather on mobile